Jet, OK

5:26 AM CDT on September 30, 2014 (GMT -0500)
Amateur Radio W5PDB | Change Station
CLOSE
Current Station
Personal Weather Station
Location: Jet, OK
Elevation: 1280 ft
Nearby Weather Stations
4.1 Earthquake: Perry, Oklahoma (7 hours ago)  

Elev 1280 ft 36.67 °N, 98.18 °W | Updated 12 seconds ago

Partly Cloudy
Partly Cloudy
66.6 °F
Feels Like 66.6 °F
N
10.0
Wind Variable Wind from SSE
Gusts 13.0 mph

Today
High -- | Low -- °F
--% Chance of Precip.
Yesterday
High -- | Low -- °F
Precip. -- in
7:26 AM 7:17 PM
Waxing Crescent, 35% visible
Pressure 29.87 in
Visibility 10.0 miles
Clouds Clear
Dew Point 46 °F
Humidity 48%
Rainfall 0.00 in
Snow Depth Not available.
UV 0 out of 12
Pollen 4.30 out of 12
Air Quality Not available.
Flu Activity Not available.
METAR KEND 300958Z AUTO 14007KT 10SM CLR 18/17 A2990 RMK AO2 SLP115 T01780166 $

More Conditions Fewer Conditions

Pressure 29.87 in
Visibility 10.0 miles
Clouds Clear
Dew Point 46 °F
Humidity 48%
Rainfall 0.00 in
Snow Depth Not available.
UV 0 out of 12
Pollen 4.30 out of 12
Air Quality Not available.
Flu Activity Not available.
METAR KEND 300958Z AUTO 14007KT 10SM CLR 18/17 A2990 RMK AO2 SLP115 T01780166 $

More Conditions Fewer Conditions

10-Day Weather Forecast

Almanac

Astronomy

Sep. 30, 2014 Rise Set
Actual Time 7:26 AM CDT 7:17 PM CDT
Civil Twilight 7:01 AM CDT 7:43 PM CDT
Nautical Twilight 6:31 AM CDT 8:13 PM CDT
Astronomical Twilight 6:00 AM CDT 8:43 PM CDT
Moon 1:29 PM CDT 11:55 PM CDT
Length of Visible Light 12h 41m
Length of Day
11h 50m
Tomorrow will be 2m 19s shorter.
Waxing Crescent, 35% of the Moon is Illuminated
Today
Waxing Crescent
Oct 1
First Quarter
Oct 8
Full
Oct 15
Last Quarter
Oct 23
New

Today's Extremes

State Highs State Lows

Community

WunderPhotos

Upload Photos

1,757,610 photos uploaded!

WunderBlogs® & News

Nearby

Snow Depth

Station Depth Elevation
No new snow has been reported.

Earthquake Activity

City Distance Mag. Time & Date
Perry, Oklahoma 48 miles 3.5 1:06 AM CDT
2014-09-30
Perry, Oklahoma 48 miles 3.3 12:58 AM CDT
2014-09-30
Perry, Oklahoma 47 miles 2.7 10:18 PM CDT
2014-09-29
Perry, Oklahoma 47 miles 4.1 10:01 PM CDT
2014-09-29
Minimum magnitude displayed is 2.5.

Coastal Water Temperatures

Place Temperature
No Stations Reporting

Nearby Weather Stations